createdAt,value
2022-10-03T00:02:09.998Z,6.43
2022-10-03T00:04:43.930Z,7.45
2022-10-03T00:07:29.206Z,12.07
2022-10-03T00:10:10.765Z,8.05
2022-10-03T00:12:59.108Z,5.93
2022-10-03T00:16:04.391Z,8.93
2022-10-03T00:18:38.084Z,8.43
2022-10-03T00:21:22.036Z,6.18
2022-10-03T00:24:20.161Z,8.48
2022-10-03T00:27:13.879Z,7.70
2022-10-03T00:32:32.270Z,6.78
2022-10-03T00:35:18.642Z,9.05
2022-10-03T00:38:20.236Z,8.13
2022-10-03T00:41:02.358Z,7.47
2022-10-03T00:44:07.753Z,9.75
2022-10-03T00:47:21.412Z,9.82
2022-10-03T00:50:02.703Z,10.13
2022-10-03T00:52:54.487Z,9.57
2022-10-03T00:55:27.688Z,10.70
2022-10-03T00:58:16.711Z,9.60
2022-10-03T01:00:50.780Z,8.82
2022-10-03T01:03:38.313Z,8.90
2022-10-03T01:06:27.058Z,7.72
2022-10-03T01:09:06.950Z,8.48
2022-10-03T01:11:55.367Z,7.25
2022-10-03T01:14:41.157Z,8.27
2022-10-03T01:17:26.260Z,7.43
2022-10-03T01:20:27.147Z,6.97
2022-10-03T01:23:14.740Z,9.00
2022-10-03T01:25:53.334Z,7.30
2022-10-03T01:28:56.445Z,8.57
2022-10-03T01:31:33.265Z,7.70
2022-10-03T01:34:22.867Z,11.23
2022-10-03T01:37:15.516Z,12.23
2022-10-03T01:39:52.362Z,10.10
2022-10-03T01:42:52.950Z,11.00
2022-10-03T01:45:36.153Z,9.02
2022-10-03T01:48:22.938Z,11.20
2022-10-03T01:51:16.681Z,10.70
2022-10-03T01:54:19.969Z,9.98
2022-10-03T01:57:13.057Z,11.67
2022-10-03T01:59:48.647Z,9.27
2022-10-03T02:02:17.875Z,10.55
2022-10-03T02:04:45.116Z,10.77
2022-10-03T02:07:48.769Z,7.05
2022-10-03T02:10:33.596Z,11.60
2022-10-03T02:13:09.858Z,10.80
2022-10-03T02:15:57.852Z,13.75
2022-10-03T02:18:52.697Z,9.25
2022-10-03T02:21:24.114Z,8.55
2022-10-03T02:24:10.398Z,12.73
2022-10-03T02:27:01.865Z,9.52
2022-10-03T02:29:56.000Z,7.45
2022-10-03T02:32:41.885Z,10.32
2022-10-03T02:35:20.701Z,11.40
2022-10-03T02:38:35.866Z,13.23
2022-10-03T02:41:33.236Z,11.32
2022-10-03T02:44:23.062Z,16.80
2022-10-03T02:46:58.632Z,13.45
2022-10-03T02:49:51.029Z,10.02
2022-10-03T02:52:52.653Z,11.13
2022-10-03T02:55:57.384Z,12.18
2022-10-03T02:58:27.726Z,10.65
2022-10-03T03:01:13.561Z,16.35
2022-10-03T03:03:52.826Z,10.40
2022-10-03T03:06:41.199Z,11.70
2022-10-03T03:09:47.265Z,15.05
2022-10-03T03:12:45.464Z,13.75
2022-10-03T03:15:37.514Z,14.38
2022-10-03T03:18:20.169Z,9.52
2022-10-03T03:21:20.659Z,13.20
2022-10-03T03:23:54.582Z,14.68
2022-10-03T03:26:37.755Z,12.07
2022-10-03T03:29:31.880Z,8.25
2022-10-03T03:32:18.553Z,9.57
2022-10-03T03:34:51.512Z,11.07
2022-10-03T03:37:34.599Z,9.73
2022-10-03T03:40:23.518Z,9.48
2022-10-03T03:43:15.332Z,12.90
2022-10-03T03:46:16.363Z,10.85
2022-10-03T03:49:08.241Z,9.18
2022-10-03T03:52:13.190Z,9.15
2022-10-03T03:54:52.189Z,10.68
2022-10-03T03:57:45.595Z,10.98
2022-10-03T04:00:15.250Z,10.05
2022-10-03T04:02:46.943Z,9.80
2022-10-03T04:05:23.733Z,11.55
2022-10-03T04:08:23.189Z,10.27
2022-10-03T04:11:18.395Z,11.07
2022-10-03T04:13:59.516Z,15.38
2022-10-03T04:17:06.199Z,10.38
2022-10-03T04:19:53.897Z,10.48
2022-10-03T04:22:29.499Z,13.80
2022-10-03T04:25:08.603Z,8.60
2022-10-03T04:28:07.199Z,7.88
2022-10-03T04:30:46.266Z,7.90
2022-10-03T04:33:23.111Z,10.32
2022-10-03T04:36:18.174Z,8.38
2022-10-03T04:39:02.810Z,10.70
2022-10-03T04:41:53.059Z,9.35
2022-10-03T04:44:32.762Z,11.15
2022-10-03T04:47:21.417Z,11.40
2022-10-03T04:50:26.945Z,11.48
2022-10-03T04:53:12.312Z,13.43
2022-10-03T04:55:52.120Z,10.00
2022-10-03T04:58:43.107Z,12.88
2022-10-03T05:01:26.484Z,9.55
2022-10-03T05:04:01.152Z,11.07
2022-10-03T05:06:42.123Z,10.85
2022-10-03T05:09:24.801Z,8.73
2022-10-03T05:12:29.569Z,10.70
2022-10-03T05:15:24.100Z,9.07
2022-10-03T05:18:09.795Z,10.60
2022-10-03T05:20:49.379Z,10.25
2022-10-03T05:23:29.624Z,9.65
2022-10-03T05:26:39.841Z,9.57
2022-10-03T05:29:06.132Z,9.00
2022-10-03T05:31:45.043Z,12.93
2022-10-03T05:34:41.643Z,14.27
2022-10-03T05:37:21.281Z,7.97
2022-10-03T05:40:04.360Z,11.43
2022-10-03T05:42:42.376Z,7.95
2022-10-03T05:45:24.584Z,14.48
2022-10-03T05:48:26.213Z,11.93
2022-10-03T05:51:18.220Z,7.40
2022-10-03T05:54:04.021Z,8.35
2022-10-03T05:56:58.857Z,11.20
2022-10-03T06:00:03.439Z,7.78
2022-10-03T06:02:54.171Z,25.50
2022-10-03T06:05:41.795Z,16.85
2022-10-03T06:08:27.205Z,8.82
2022-10-03T06:11:28.624Z,11.10
2022-10-03T06:14:19.994Z,10.93
2022-10-03T06:17:02.917Z,12.85
2022-10-03T06:19:55.837Z,14.48
2022-10-03T06:23:02.406Z,9.57
2022-10-03T06:25:58.392Z,9.63
2022-10-03T06:28:59.176Z,11.30
2022-10-03T06:31:53.741Z,8.85
2022-10-03T06:34:54.761Z,10.10
2022-10-03T06:37:29.132Z,10.27
2022-10-03T06:40:32.736Z,11.02
2022-10-03T06:43:44.077Z,12.05
2022-10-03T06:46:45.965Z,9.13
2022-10-03T06:49:26.959Z,9.02
2022-10-03T06:52:25.374Z,15.10
2022-10-03T06:55:30.167Z,10.23
2022-10-03T06:58:23.226Z,11.02
2022-10-03T07:01:02.641Z,8.40
2022-10-03T07:03:56.136Z,10.48
2022-10-03T07:06:38.401Z,10.85
2022-10-03T07:09:36.281Z,12.10
2022-10-03T07:12:34.220Z,12.10
2022-10-03T07:15:50.204Z,13.38
2022-10-03T07:18:41.500Z,14.40
2022-10-03T07:21:33.324Z,13.65
2022-10-03T07:24:40.004Z,13.23
2022-10-03T07:27:50.766Z,14.57
2022-10-03T07:30:25.755Z,13.23
2022-10-03T07:33:04.954Z,14.90
2022-10-03T07:36:09.392Z,13.63
2022-10-03T07:39:26.989Z,9.90
2022-10-03T07:42:15.341Z,12.45
2022-10-03T07:45:04.191Z,15.05
2022-10-03T07:47:57.800Z,10.40
2022-10-03T07:50:51.287Z,19.40
2022-10-03T07:53:36.645Z,12.32
2022-10-03T07:56:42.817Z,12.23
2022-10-03T07:59:35.037Z,9.10
2022-10-03T08:02:40.579Z,25.00
2022-10-03T08:05:27.077Z,18.23
2022-10-03T08:08:39.545Z,13.00
2022-10-03T08:11:41.670Z,12.57
2022-10-03T08:14:27.998Z,11.65
2022-10-03T08:17:21.231Z,13.25
2022-10-03T08:19:51.687Z,10.02
2022-10-03T08:22:45.329Z,16.17
2022-10-03T08:25:40.526Z,16.08
2022-10-03T08:28:30.061Z,13.77
2022-10-03T08:31:12.125Z,14.13
2022-10-03T08:34:09.237Z,11.13
2022-10-03T08:37:14.199Z,10.10
2022-10-03T08:39:57.875Z,9.00
2022-10-03T08:42:31.176Z,11.20
2022-10-03T08:48:02.692Z,12.20
2022-10-03T08:50:41.742Z,9.85
2022-10-03T08:53:28.318Z,13.50
2022-10-03T08:56:13.476Z,8.65
2022-10-03T08:58:59.278Z,11.43
2022-10-03T09:01:45.511Z,8.77
2022-10-03T09:04:40.238Z,9.10
2022-10-03T09:07:18.690Z,8.23
2022-10-03T09:09:49.725Z,10.43
2022-10-03T09:12:54.962Z,10.38
2022-10-03T09:15:43.392Z,9.38
2022-10-03T09:18:52.607Z,12.35
2022-10-03T09:21:44.208Z,10.02
2022-10-03T09:24:33.043Z,8.45
2022-10-03T09:27:22.712Z,13.65
2022-10-03T09:30:11.043Z,11.70
2022-10-03T09:32:47.401Z,10.10
2022-10-03T09:35:42.247Z,7.93
2022-10-03T09:38:34.222Z,10.38
2022-10-03T09:41:23.120Z,9.93
2022-10-03T09:43:53.516Z,10.75
2022-10-03T09:47:23.493Z,11.23
2022-10-03T09:50:21.631Z,9.63
2022-10-03T09:53:31.711Z,9.52
2022-10-03T09:56:23.880Z,12.57
2022-10-03T09:59:28.684Z,12.45
2022-10-03T10:02:33.672Z,8.95
2022-10-03T10:05:11.374Z,11.25
2022-10-03T10:07:38.573Z,12.38
2022-10-03T10:10:43.771Z,13.55
2022-10-03T10:13:23.205Z,10.70
2022-10-03T10:16:18.296Z,10.90
2022-10-03T10:19:04.483Z,8.85
2022-10-03T10:21:31.820Z,8.73
2022-10-03T10:24:36.763Z,9.30
2022-10-03T10:27:55.312Z,8.20
2022-10-03T10:30:33.079Z,9.40
2022-10-03T10:33:28.825Z,7.45
2022-10-03T10:36:33.809Z,9.88
2022-10-03T10:39:21.626Z,10.02
2022-10-03T10:42:36.285Z,9.95
2022-10-03T10:45:42.006Z,8.15
2022-10-03T10:48:34.424Z,7.68
2022-10-03T10:51:31.695Z,6.07
2022-10-03T10:54:17.713Z,7.20
2022-10-03T10:56:51.745Z,5.93
2022-10-03T11:02:48.583Z,5.18
2022-10-03T11:05:46.961Z,8.15
2022-10-03T11:08:52.363Z,6.05
2022-10-03T11:11:39.232Z,6.00
2022-10-03T11:14:30.098Z,7.97
2022-10-03T11:17:06.741Z,5.10
2022-10-03T11:19:58.664Z,6.05
2022-10-03T11:22:59.983Z,5.63
2022-10-03T11:26:06.208Z,6.82
2022-10-03T11:28:42.326Z,7.20
2022-10-03T11:31:34.024Z,11.63
2022-10-03T11:34:34.914Z,5.25
2022-10-03T11:37:09.048Z,5.90
2022-10-03T11:39:57.770Z,6.65
2022-10-03T11:42:50.825Z,7.43
2022-10-03T11:48:34.912Z,9.15
2022-10-03T11:51:19.833Z,8.93
2022-10-03T11:54:26.702Z,7.38
2022-10-03T11:57:33.469Z,4.85
2022-10-03T12:00:19.983Z,6.68
2022-10-03T12:02:47.278Z,7.47
2022-10-03T12:05:27.977Z,6.40
2022-10-03T12:08:26.035Z,9.85
2022-10-03T12:11:15.102Z,8.82
2022-10-03T12:14:01.160Z,6.05
2022-10-03T12:16:32.949Z,7.57
2022-10-03T12:19:31.164Z,8.27
2022-10-03T12:22:13.119Z,8.77
2022-10-03T12:24:43.204Z,9.98
2022-10-03T12:27:17.655Z,8.68
2022-10-03T12:29:54.930Z,7.45
2022-10-03T12:32:46.592Z,7.20
2022-10-03T12:35:38.109Z,8.98
2022-10-03T12:38:23.540Z,8.65
2022-10-03T12:40:56.673Z,7.32
2022-10-03T12:43:45.092Z,9.07
2022-10-03T12:46:26.249Z,7.85
2022-10-03T12:49:05.513Z,9.75
2022-10-03T12:52:01.178Z,12.15
2022-10-03T12:54:49.497Z,8.70
2022-10-03T12:57:53.669Z,8.20
2022-10-03T13:00:45.846Z,12.02
2022-10-03T13:03:40.738Z,9.88
2022-10-03T13:07:01.699Z,10.27
2022-10-03T13:09:35.172Z,11.32
2022-10-03T13:12:23.004Z,11.68
2022-10-03T13:15:38.996Z,15.50
2022-10-03T13:18:18.445Z,12.75
2022-10-03T13:21:45.092Z,11.07
2022-10-03T13:24:26.851Z,15.15
2022-10-03T13:27:08.393Z,13.18
2022-10-03T13:29:48.827Z,13.70
2022-10-03T13:32:33.360Z,12.10
2022-10-03T13:35:33.520Z,11.57
2022-10-03T13:38:33.236Z,12.05
2022-10-03T13:41:15.789Z,12.80
2022-10-03T13:43:56.885Z,14.68
2022-10-03T13:46:45.154Z,14.95
2022-10-03T13:49:33.868Z,13.48
2022-10-03T13:52:34.265Z,35.55
2022-10-03T13:55:09.895Z,16.95
2022-10-03T13:57:58.634Z,14.23
2022-10-03T14:00:31.666Z,14.82
2022-10-03T14:03:29.076Z,15.07
2022-10-03T14:06:15.069Z,11.32
2022-10-03T14:09:08.327Z,14.65
2022-10-03T14:11:43.773Z,16.48
2022-10-03T14:14:34.387Z,10.13
2022-10-03T14:17:25.636Z,13.73
2022-10-03T14:20:34.619Z,12.73
2022-10-03T14:23:37.490Z,15.57
2022-10-03T14:26:30.435Z,14.85
2022-10-03T14:29:05.047Z,12.55
2022-10-03T14:31:57.503Z,14.77
2022-10-03T14:34:47.612Z,13.30
2022-10-03T14:38:07.569Z,11.88
2022-10-03T14:41:04.038Z,13.48
2022-10-03T14:43:45.938Z,15.73
2022-10-03T14:46:24.369Z,14.93
2022-10-03T14:49:05.549Z,12.85
2022-10-03T14:51:44.842Z,11.77
2022-10-03T14:54:22.799Z,15.70
2022-10-03T14:56:51.964Z,18.83
2022-10-03T14:59:25.454Z,12.52
2022-10-03T15:01:55.506Z,13.30
2022-10-03T15:04:28.804Z,19.35
2022-10-03T15:07:02.732Z,14.75
2022-10-03T15:09:46.744Z,13.32
2022-10-03T15:12:24.235Z,14.73
2022-10-03T15:15:01.992Z,15.20
2022-10-03T15:17:36.845Z,14.90
2022-10-03T15:20:20.322Z,14.38
2022-10-03T15:22:57.203Z,14.77
2022-10-03T15:25:35.854Z,13.38
2022-10-03T15:28:11.799Z,15.43
2022-10-03T15:33:37.578Z,15.38
2022-10-03T15:36:24.673Z,12.13
2022-10-03T15:39:03.993Z,14.15
2022-10-03T15:41:56.455Z,13.13
2022-10-03T15:44:33.902Z,11.60
2022-10-03T15:47:08.980Z,12.13
2022-10-03T15:50:07.124Z,13.45
2022-10-03T15:53:08.169Z,12.23
2022-10-03T15:55:50.351Z,14.88
2022-10-03T15:58:26.413Z,13.85
2022-10-03T16:01:01.837Z,14.38
2022-10-03T16:03:58.048Z,17.85
2022-10-03T16:06:35.933Z,15.10
2022-10-03T16:09:24.239Z,14.20
2022-10-03T16:12:00.525Z,11.98
2022-10-03T16:14:37.514Z,13.85
2022-10-03T16:17:26.839Z,10.82
2022-10-03T16:20:20.947Z,13.55
2022-10-03T16:23:02.808Z,17.83
2022-10-03T16:25:44.220Z,11.98
2022-10-03T16:28:34.314Z,17.17
2022-10-03T16:31:20.861Z,11.57
2022-10-03T16:34:03.746Z,14.07
2022-10-03T16:36:40.388Z,18.83
2022-10-03T16:39:21.304Z,15.02
2022-10-03T16:41:54.241Z,13.40
2022-10-03T16:44:36.085Z,13.65
2022-10-03T16:47:05.480Z,17.23
2022-10-03T16:50:08.273Z,16.25
2022-10-03T16:52:38.291Z,12.52
2022-10-03T16:55:20.376Z,19.15
2022-10-03T16:57:50.350Z,15.45
2022-10-03T17:00:23.779Z,12.90
2022-10-03T17:02:52.595Z,12.60
2022-10-03T17:05:20.531Z,15.98
2022-10-03T17:08:06.670Z,15.55
2022-10-03T17:10:52.385Z,10.60
2022-10-03T17:13:23.840Z,11.70
2022-10-03T17:15:58.478Z,10.77
2022-10-03T17:18:35.093Z,13.98
2022-10-03T17:21:18.725Z,11.07
2022-10-03T17:24:08.704Z,13.43
2022-10-03T17:26:45.509Z,18.42
2022-10-03T17:29:20.964Z,12.85
2022-10-03T17:31:59.778Z,14.07
2022-10-03T17:34:43.831Z,15.57
2022-10-03T17:37:59.787Z,13.15
2022-10-03T17:40:53.153Z,12.32
2022-10-03T17:44:06.061Z,12.38
2022-10-03T17:46:45.657Z,13.48
2022-10-03T17:49:12.939Z,18.33
2022-10-03T17:51:49.562Z,14.05
2022-10-03T17:54:35.769Z,17.77
2022-10-03T17:57:24.568Z,16.83
2022-10-03T18:00:07.673Z,14.23
2022-10-03T18:02:57.184Z,15.73
2022-10-03T18:05:29.470Z,16.00
2022-10-03T18:08:10.708Z,13.40
2022-10-03T18:10:41.643Z,15.35
2022-10-03T18:13:23.634Z,16.20
2022-10-03T18:16:07.501Z,15.75
2022-10-03T18:18:48.145Z,12.50
2022-10-03T18:21:35.962Z,11.75
2022-10-03T18:24:24.949Z,16.83
2022-10-03T18:27:19.292Z,15.80
2022-10-03T18:30:05.865Z,15.25
2022-10-03T18:32:45.609Z,19.77
2022-10-03T18:35:18.026Z,18.25
2022-10-03T18:37:45.288Z,16.55
2022-10-03T18:40:26.713Z,14.32
2022-10-03T18:42:54.645Z,20.50
2022-10-03T18:45:37.922Z,19.20
2022-10-03T18:48:34.204Z,17.15
2022-10-03T18:51:18.273Z,20.15
2022-10-03T18:53:56.931Z,17.08
2022-10-03T18:56:25.810Z,16.63
2022-10-03T18:59:07.984Z,17.05
2022-10-03T19:01:51.954Z,15.70
2022-10-03T19:04:30.115Z,17.80
2022-10-03T19:06:58.961Z,19.23
2022-10-03T19:09:35.504Z,16.00
2022-10-03T19:12:18.337Z,18.92
2022-10-03T19:14:57.389Z,22.45
2022-10-03T19:17:33.592Z,13.82
2022-10-03T19:20:15.739Z,20.95
2022-10-03T19:22:55.293Z,16.48
2022-10-03T19:25:24.806Z,16.23
2022-10-03T19:27:59.523Z,23.08
2022-10-03T19:30:30.963Z,19.42
2022-10-03T19:33:03.264Z,20.45
2022-10-03T19:35:32.284Z,18.85
2022-10-03T19:38:17.402Z,15.93
2022-10-03T19:41:05.025Z,18.10
2022-10-03T19:43:50.143Z,18.90
2022-10-03T19:46:32.788Z,16.98
2022-10-03T19:49:26.185Z,15.23
2022-10-03T19:52:21.382Z,16.42
2022-10-03T19:54:53.163Z,18.40
2022-10-03T19:57:58.740Z,16.00
2022-10-03T20:00:38.046Z,15.70
2022-10-03T20:03:07.488Z,15.98
2022-10-03T20:05:51.343Z,18.90
2022-10-03T20:08:30.448Z,18.20
2022-10-03T20:11:21.834Z,17.52
2022-10-03T20:13:50.095Z,16.50
2022-10-03T20:16:22.585Z,15.20
2022-10-03T20:18:53.747Z,19.52
2022-10-03T20:21:25.854Z,16.77
2022-10-03T20:23:57.948Z,17.92
2022-10-03T20:26:50.475Z,16.35
2022-10-03T20:29:28.476Z,17.27
2022-10-03T20:32:03.212Z,18.10
2022-10-03T20:34:31.206Z,14.65
2022-10-03T20:37:27.081Z,18.95
2022-10-03T20:40:03.236Z,16.08
2022-10-03T20:42:31.439Z,15.65
2022-10-03T20:45:13.514Z,16.75
2022-10-03T20:48:03.557Z,15.25
2022-10-03T20:50:36.474Z,14.80
2022-10-03T20:53:22.381Z,16.13
2022-10-03T20:55:54.555Z,13.60
2022-10-03T20:58:32.463Z,19.63
2022-10-03T21:01:10.255Z,13.02
2022-10-03T21:03:41.349Z,13.88
2022-10-03T21:06:26.342Z,14.70
2022-10-03T21:08:56.429Z,18.60
2022-10-03T21:11:30.285Z,14.68
2022-10-03T21:14:21.340Z,15.32
2022-10-03T21:16:53.608Z,16.35
2022-10-03T21:19:32.087Z,16.63
2022-10-03T21:22:03.700Z,16.35
2022-10-03T21:24:44.311Z,19.48
2022-10-03T21:27:19.778Z,17.40
2022-10-03T21:30:15.732Z,14.73
2022-10-03T21:32:55.193Z,16.48
2022-10-03T21:35:46.898Z,15.45
2022-10-03T21:38:26.888Z,20.30
2022-10-03T21:41:25.632Z,15.35
2022-10-03T21:44:02.821Z,14.27
2022-10-03T21:46:48.057Z,15.95
2022-10-03T21:50:01.132Z,16.15
2022-10-03T21:52:34.477Z,19.15
2022-10-03T21:55:39.211Z,14.40
2022-10-03T21:58:56.845Z,18.88
2022-10-03T22:01:52.591Z,15.15
2022-10-03T22:04:36.866Z,16.17
2022-10-03T22:07:18.240Z,19.20
2022-10-03T22:09:54.366Z,20.10
2022-10-03T22:12:23.352Z,17.25
2022-10-03T22:15:12.083Z,16.20
2022-10-03T22:17:47.557Z,19.58
2022-10-03T22:20:14.833Z,18.58
2022-10-03T22:23:19.211Z,16.90
2022-10-03T22:26:08.377Z,15.85
2022-10-03T22:28:41.996Z,13.82
2022-10-03T22:31:25.305Z,17.20
2022-10-03T22:33:59.556Z,13.85
2022-10-03T22:36:28.868Z,17.40
2022-10-03T22:38:56.441Z,13.75
2022-10-03T22:41:30.545Z,13.82
2022-10-03T22:43:59.439Z,13.40
2022-10-03T22:46:30.516Z,12.77
2022-10-03T22:49:15.530Z,12.35
2022-10-03T22:51:44.912Z,10.57
2022-10-03T22:54:15.261Z,13.65
2022-10-03T22:56:52.532Z,12.48
2022-10-03T22:59:33.325Z,10.40
2022-10-03T23:02:05.253Z,14.00
2022-10-03T23:04:38.452Z,9.60
2022-10-03T23:09:46.896Z,14.98
2022-10-03T23:12:15.616Z,11.82
2022-10-03T23:14:48.451Z,11.35
2022-10-03T23:17:37.507Z,10.95
2022-10-03T23:20:15.373Z,11.88
2022-10-03T23:22:47.704Z,12.57
2022-10-03T23:25:31.621Z,8.70
2022-10-03T23:28:04.583Z,11.68
2022-10-03T23:30:34.671Z,10.65
2022-10-03T23:33:02.023Z,11.63
2022-10-03T23:35:43.431Z,11.93
2022-10-03T23:38:33.040Z,10.63
2022-10-03T23:41:04.679Z,12.02
2022-10-03T23:43:49.389Z,9.05
2022-10-03T23:46:22.729Z,12.60
2022-10-03T23:48:54.047Z,9.68
2022-10-03T23:51:27.012Z,12.00
2022-10-03T23:54:02.675Z,10.93
2022-10-03T23:56:48.561Z,12.90
2022-10-03T23:59:15.815Z,10.13
